Time;durP1;ratioP1;P1;durP2;ratioP2;P2;SDS_P1;SDS_P2;PMS_P1;PMS_P2;Temp;Humidity;BMP_temperature;BMP_pressure;BME280_temperature;BME280_humidity;BME280_pressure;Samples;Min_cycle;Max_cycle;Signal;HPM_P1;HPM_P2
2023/11/13 00:01:15;;;;;;;1.75;1.00;;;20.80;56.90;;;;;;5019136;28;20022;-69
2023/11/13 00:03:41;;;;;;;1.77;1.08;;;20.70;56.90;;;;;;5010533;28;20156;-69
2023/11/13 00:06:07;;;;;;;1.80;1.10;;;20.70;56.90;;;;;;5018326;28;20470;-69
2023/11/13 00:08:33;;;;;;;2.33;0.90;;;20.70;56.90;;;;;;5017149;28;20025;-69
2023/11/13 00:10:59;;;;;;;2.35;1.08;;;20.70;56.90;;;;;;5018486;28;20493;-69
2023/11/13 00:13:24;;;;;;;1.55;1.00;;;20.70;56.90;;;;;;5016018;28;20022;-69
2023/11/13 00:15:50;;;;;;;2.70;1.10;;;20.70;56.90;;;;;;5017935;28;20128;-69
2023/11/13 00:18:16;;;;;;;2.90;1.20;;;20.70;56.90;;;;;;5018384;28;20029;-70
2023/11/13 00:20:41;;;;;;;1.98;1.08;;;20.70;56.90;;;;;;5009444;28;20445;-69
2023/11/13 00:23:07;;;;;;;2.38;0.90;;;20.70;56.90;;;;;;5018001;28;20502;-70
2023/11/13 00:25:33;;;;;;;1.77;0.98;;;20.70;56.90;;;;;;5016822;28;20033;-69
2023/11/13 00:27:58;;;;;;;1.60;0.90;;;20.70;56.90;;;;;;5019290;28;20026;-67
2023/11/13 00:30:24;;;;;;;1.33;0.85;;;20.70;56.90;;;;;;5022600;28;20029;-68
2023/11/13 00:32:50;;;;;;;2.20;1.00;;;20.70;56.90;;;;;;5020813;28;20033;-68
2023/11/13 00:35:15;;;;;;;1.65;0.90;;;20.70;56.90;;;;;;5020741;28;20036;-68
2023/11/13 00:37:41;;;;;;;1.50;0.95;;;20.70;56.90;;;;;;5021595;28;20033;-67
2023/11/13 00:40:07;;;;;;;2.50;1.15;;;20.70;56.90;;;;;;5022224;28;20049;-67
2023/11/13 00:42:33;;;;;;;2.80;1.20;;;20.70;56.90;;;;;;5020659;28;20029;-67
2023/11/13 00:44:59;;;;;;;2.40;1.10;;;20.70;56.90;;;;;;5016195;28;20482;-67
2023/11/13 00:47:25;;;;;;;1.83;1.00;;;20.60;56.80;;;;;;5020558;28;20393;-67
2023/11/13 00:49:51;;;;;;;2.10;1.10;;;20.70;56.90;;;;;;5021293;28;20040;-68
2023/11/13 00:52:17;;;;;;;2.22;1.10;;;20.60;56.80;;;;;;5020804;28;20057;-67
2023/11/13 00:54:42;;;;;;;1.65;1.00;;;20.60;56.80;;;;;;5036591;28;20071;-68
2023/11/13 00:57:08;;;;;;;1.92;1.10;;;20.60;56.80;;;;;;5022298;28;20211;-70
2023/11/13 00:59:34;;;;;;;2.05;1.02;;;20.60;56.80;;;;;;5018987;28;20072;-70
2023/11/13 01:02:01;;;;;;;2.22;1.08;;;20.60;56.80;;;;;;5021572;28;20041;-70
2023/11/13 01:04:27;;;;;;;1.35;1.00;;;20.60;56.80;;;;;;5020955;28;20028;-70
2023/11/13 01:06:56;;;;;;;1.85;1.10;;;20.60;57.30;;;;;;5022082;28;20030;-69
2023/11/13 01:09:22;;;;;;;1.90;1.17;;;20.60;56.80;;;;;;5004411;28;20116;-70
2023/11/13 01:11:52;;;;;;;1.70;0.93;;;20.60;56.80;;;;;;5022309;28;20075;-70
2023/11/13 01:14:18;;;;;;;1.92;1.02;;;20.60;56.80;;;;;;5018077;28;20062;-69
2023/11/13 01:16:44;;;;;;;1.92;1.00;;;20.60;56.90;;;;;;5021188;28;20025;-69
2023/11/13 01:19:10;;;;;;;1.00;0.80;;;20.60;56.80;;;;;;5020904;28;20492;-70
2023/11/13 01:21:37;;;;;;;2.00;1.20;;;20.60;56.80;;;;;;5020829;28;20053;-70
2023/11/13 01:24:03;;;;;;;1.80;0.90;;;20.60;56.80;;;;;;5022452;28;20022;-69
2023/11/13 01:26:28;;;;;;;1.50;1.00;;;20.60;56.90;;;;;;5020004;28;20451;-68
2023/11/13 01:28:54;;;;;;;2.50;1.00;;;20.50;56.80;;;;;;5035287;28;20046;-68
2023/11/13 01:31:19;;;;;;;1.58;0.95;;;20.50;56.80;;;;;;5020534;28;20100;-68
2023/11/13 01:33:45;;;;;;;1.38;0.95;;;20.50;56.80;;;;;;5022235;28;20030;-68
2023/11/13 01:36:10;;;;;;;1.20;0.90;;;20.50;56.80;;;;;;5020179;28;20026;-67
2023/11/13 01:38:36;;;;;;;1.73;1.05;;;20.50;56.80;;;;;;5019937;28;20056;-67
2023/11/13 01:41:02;;;;;;;1.60;0.93;;;20.50;56.80;;;;;;5034293;28;20026;-67
2023/11/13 01:43:28;;;;;;;2.25;1.00;;;20.50;56.80;;;;;;5019122;28;20116;-67
2023/11/13 01:45:55;;;;;;;1.85;1.02;;;20.50;56.80;;;;;;5020341;28;20680;-67
2023/11/13 01:48:21;;;;;;;1.65;1.00;;;20.50;56.80;;;;;;5021319;28;20021;-67
2023/11/13 01:50:48;;;;;;;1.65;1.10;;;20.50;56.80;;;;;;5019803;28;20111;-67
2023/11/13 01:53:18;;;;;;;1.50;1.00;;;20.40;56.80;;;;;;5021669;28;20049;-67
2023/11/13 01:55:45;;;;;;;1.42;0.90;;;20.50;56.80;;;;;;5020229;28;20157;-68
2023/11/13 01:58:14;;;;;;;1.52;1.00;;;20.50;56.80;;;;;;5021695;28;20440;-67
2023/11/13 02:00:39;;;;;;;1.63;0.98;;;20.40;56.80;;;;;;5019482;28;20021;-67
2023/11/13 02:03:06;;;;;;;1.75;1.00;;;20.40;56.80;;;;;;5019305;28;20048;-67
2023/11/13 02:05:32;;;;;;;1.75;1.00;;;20.40;56.80;;;;;;5018349;28;20053;-68
2023/11/13 02:07:58;;;;;;;1.65;1.00;;;20.40;56.80;;;;;;5019815;28;20501;-67
2023/11/13 02:10:26;;;;;;;1.40;0.93;;;20.40;56.80;;;;;;5034436;28;20153;-67
2023/11/13 02:12:53;;;;;;;1.80;1.00;;;20.40;56.80;;;;;;4985865;28;20041;-67
2023/11/13 02:15:19;;;;;;;2.00;1.10;;;20.40;56.80;;;;;;5017354;28;20017;-67
2023/11/13 02:18:01;;;;;;;2.10;1.10;;;20.40;56.80;;;;;;5020741;28;20022;-68
2023/11/13 02:20:28;;;;;;;1.42;0.98;;;20.40;56.80;;;;;;5018633;28;20498;-67
2023/11/13 02:22:54;;;;;;;1.88;1.10;;;20.40;56.80;;;;;;5017727;28;20026;-68
2023/11/13 02:25:23;;;;;;;1.33;0.90;;;20.40;56.80;;;;;;5020288;28;20157;-68
2023/11/13 02:27:57;;;;;;;1.23;0.90;;;20.40;56.80;;;;;;5019424;28;20028;-68
2023/11/13 02:30:23;;;;;;;1.85;1.10;;;20.40;56.80;;;;;;5018118;28;20029;-67
2023/11/13 02:32:49;;;;;;;1.55;0.98;;;20.40;56.80;;;;;;5034412;28;20029;-68
2023/11/13 02:35:16;;;;;;;1.75;1.08;;;20.40;56.90;;;;;;5019073;28;20088;-68
2023/11/13 02:37:42;;;;;;;1.42;0.90;;;20.40;56.80;;;;;;5016848;28;20064;-70
2023/11/13 02:40:11;;;;;;;2.00;1.10;;;20.30;56.80;;;;;;5017479;28;20052;-69
2023/11/13 02:42:37;;;;;;;;;;;20.30;56.80;;;;;;5001030;28;20030;-69
2023/11/13 02:45:04;;;;;;;1.00;0.77;;;20.30;56.80;;;;;;5017733;28;20223;-69
2023/11/13 02:47:30;;;;;;;1.92;1.10;;;20.30;56.80;;;;;;5017894;28;20032;-69
2023/11/13 02:49:57;;;;;;;1.80;0.90;;;20.40;56.90;;;;;;5019608;28;20489;-69
2023/11/13 02:52:23;;;;;;;0.95;0.80;;;20.40;56.80;;;;;;5033942;28;20489;-69
2023/11/13 02:54:49;;;;;;;1.42;0.90;;;20.40;56.90;;;;;;5016599;28;20026;-69
2023/11/13 02:57:15;;;;;;;1.90;1.10;;;20.30;56.80;;;;;;5033755;28;20032;-69
2023/11/13 02:59:40;;;;;;;1.55;0.90;;;20.30;56.80;;;;;;5018712;28;20041;-69
2023/11/13 03:02:06;;;;;;;1.63;1.08;;;20.30;56.90;;;;;;5020041;28;20573;-69
2023/11/13 03:04:31;;;;;;;1.65;1.00;;;20.30;56.80;;;;;;5019458;28;20083;-69
2023/11/13 03:06:57;;;;;;;1.65;0.98;;;20.30;56.80;;;;;;5018071;28;20124;-69
2023/11/13 03:09:22;;;;;;;1.52;0.88;;;20.30;56.80;;;;;;5019908;28;20029;-69
2023/11/13 03:11:48;;;;;;;1.33;0.90;;;20.30;56.80;;;;;;5018654;28;20065;-69
2023/11/13 03:14:14;;;;;;;1.60;0.90;;;20.30;56.80;;;;;;5018201;28;20273;-69
2023/11/13 03:16:39;;;;;;;1.15;0.80;;;20.30;56.80;;;;;;5020580;28;20029;-69
2023/11/13 03:19:05;;;;;;;1.88;1.00;;;20.30;56.80;;;;;;5020515;28;20326;-68
2023/11/13 03:21:31;;;;;;;1.35;0.90;;;20.30;56.80;;;;;;5018846;28;20026;-68
2023/11/13 03:23:57;;;;;;;0.93;0.80;;;20.30;56.80;;;;;;5020858;28;20025;-67
2023/11/13 03:26:23;;;;;;;1.65;0.93;;;20.30;56.80;;;;;;5019049;28;20075;-68
2023/11/13 03:28:50;;;;;;;1.63;0.93;;;20.30;56.80;;;;;;5019316;28;20041;-67
2023/11/13 03:31:17;;;;;;;1.65;0.85;;;20.20;56.80;;;;;;5016688;28;20508;-68
2023/11/13 03:33:43;;;;;;;1.83;0.90;;;20.20;56.80;;;;;;5019076;28;20041;-67
2023/11/13 03:36:08;;;;;;;1.40;0.80;;;20.20;56.80;;;;;;5017899;28;20030;-67
2023/11/13 03:38:34;;;;;;;1.75;0.93;;;20.20;56.80;;;;;;5017740;28;20577;-67
2023/11/13 03:41:00;;;;;;;1.48;0.90;;;20.20;56.80;;;;;;5018301;28;20033;-68
2023/11/13 03:43:25;;;;;;;1.25;0.85;;;20.20;56.80;;;;;;5017353;28;20045;-67
2023/11/13 03:45:51;;;;;;;1.55;1.00;;;20.20;56.80;;;;;;4997741;28;20116;-67
2023/11/13 03:48:16;;;;;;;1.58;1.00;;;20.20;56.80;;;;;;5018734;28;20084;-67
2023/11/13 03:50:42;;;;;;;1.00;0.70;;;20.20;56.80;;;;;;5033971;28;20054;-67
2023/11/13 03:53:07;;;;;;;1.15;0.80;;;20.20;56.80;;;;;;5018411;28;20025;-67
2023/11/13 03:55:33;;;;;;;1.10;0.90;;;20.20;56.80;;;;;;5019314;28;20025;-67
2023/11/13 03:57:59;;;;;;;1.27;0.95;;;20.20;56.80;;;;;;5017084;28;20029;-69
2023/11/13 04:00:24;;;;;;;1.15;0.80;;;20.20;56.80;;;;;;5016603;28;20025;-69
2023/11/13 04:02:50;;;;;;;1.63;0.80;;;20.20;56.80;;;;;;5019199;28;20029;-69
2023/11/13 04:05:16;;;;;;;1.73;1.00;;;20.20;56.80;;;;;;5023096;28;20119;-69
2023/11/13 04:07:42;;;;;;;1.67;1.00;;;20.20;56.80;;;;;;5021714;28;20144;-69
2023/11/13 04:10:14;;;;;;;1.13;0.80;;;20.20;56.80;;;;;;5021442;28;20062;-69
2023/11/13 04:12:41;;;;;;;1.58;0.98;;;20.20;56.80;;;;;;5022373;28;20061;-69
2023/11/13 04:15:08;;;;;;;1.63;0.90;;;20.10;56.70;;;;;;5022690;28;20505;-69
2023/11/13 04:17:34;;;;;;;1.20;0.90;;;20.10;56.80;;;;;;5022409;28;20018;-69
2023/11/13 04:20:05;;;;;;;1.10;0.80;;;20.10;56.70;;;;;;5020756;28;20424;-69
2023/11/13 04:22:31;;;;;;;1.05;0.85;;;20.10;56.80;;;;;;5022512;28;20030;-69
2023/11/13 04:24:56;;;;;;;2.00;0.90;;;20.10;56.70;;;;;;5022992;28;20084;-69
2023/11/13 04:27:22;;;;;;;1.20;0.80;;;20.10;56.70;;;;;;5018886;28;20026;-67
2023/11/13 04:29:48;;;;;;;1.25;0.80;;;20.10;56.80;;;;;;5021431;28;20481;-69
2023/11/13 04:32:13;;;;;;;1.05;0.80;;;20.10;56.80;;;;;;5022867;28;20040;-69
2023/11/13 04:34:39;;;;;;;0.93;0.77;;;20.10;56.80;;;;;;5020163;28;20049;-69
2023/11/13 04:37:04;;;;;;;1.30;0.80;;;20.10;56.80;;;;;;5022012;28;20085;-69
2023/11/13 04:39:30;;;;;;;0.90;0.70;;;20.10;56.80;;;;;;5005255;28;20504;-69
2023/11/13 04:41:56;;;;;;;1.35;1.00;;;20.10;56.80;;;;;;5022555;28;20117;-68
2023/11/13 04:44:22;;;;;;;0.80;0.70;;;20.10;56.80;;;;;;5022005;28;20381;-68
2023/11/13 04:46:48;;;;;;;1.08;0.70;;;20.10;56.80;;;;;;5021453;28;20025;-68
2023/11/13 04:49:14;;;;;;;1.27;0.80;;;20.10;56.70;;;;;;5022298;28;20022;-68
2023/11/13 04:51:42;;;;;;;1.42;0.80;;;20.10;56.70;;;;;;5021777;28;20021;-68
2023/11/13 04:54:08;;;;;;;1.58;0.82;;;20.10;56.70;;;;;;5022273;28;20044;-68
2023/11/13 04:56:33;;;;;;;1.35;0.90;;;20.10;56.70;;;;;;5022148;28;20470;-68
2023/11/13 04:58:59;;;;;;;1.45;0.93;;;20.10;56.70;;;;;;5021695;28;20106;-67
2023/11/13 05:01:25;;;;;;;1.65;0.82;;;20.10;56.70;;;;;;5002230;28;20112;-67
2023/11/13 05:03:50;;;;;;;1.00;0.80;;;20.00;56.70;;;;;;5019641;28;20034;-68
2023/11/13 05:06:16;;;;;;;1.83;0.82;;;20.00;56.70;;;;;;5022330;28;20458;-67
2023/11/13 05:08:44;;;;;;;1.00;0.80;;;20.00;56.80;;;;;;5021229;28;20034;-68
2023/11/13 05:11:23;;;;;;;1.15;0.70;;;20.00;56.80;;;;;;5020974;28;20390;-68
2023/11/13 05:13:51;;;;;;;1.58;0.88;;;20.00;56.90;;;;;;5020069;28;20046;-68
2023/11/13 05:16:20;;;;;;;1.67;0.93;;;20.00;56.90;;;;;;5018154;28;20021;-68
2023/11/13 05:18:46;;;;;;;1.25;0.95;;;20.00;56.90;;;;;;5019433;28;20363;-68
2023/11/13 05:21:13;;;;;;;1.42;0.88;;;20.00;56.90;;;;;;5020663;28;20026;-68
2023/11/13 05:23:39;;;;;;;1.30;0.80;;;20.00;57.00;;;;;;5021463;28;20470;-69
2023/11/13 05:26:05;;;;;;;1.10;0.80;;;20.00;57.00;;;;;;5022549;28;20045;-68
2023/11/13 05:28:31;;;;;;;1.27;0.80;;;20.00;57.00;;;;;;5019594;28;20316;-68
2023/11/13 05:30:56;;;;;;;1.42;0.90;;;19.90;57.00;;;;;;5018074;28;20022;-68
2023/11/13 05:33:22;;;;;;;1.80;0.90;;;20.00;57.10;;;;;;5019881;28;20129;-69
2023/11/13 05:35:47;;;;;;;1.13;0.90;;;20.00;57.10;;;;;;5021587;28;20107;-68
2023/11/13 05:38:14;;;;;;;1.08;0.80;;;20.00;57.10;;;;;;5019144;28;20390;-69
2023/11/13 05:40:40;;;;;;;1.05;0.80;;;20.00;57.20;;;;;;5020427;28;20026;-70
2023/11/13 05:43:06;;;;;;;1.02;0.77;;;20.00;57.20;;;;;;5017606;28;20058;-70
2023/11/13 05:45:31;;;;;;;1.02;0.75;;;19.90;57.10;;;;;;5019781;28;20517;-69
2023/11/13 05:47:57;;;;;;;1.27;0.80;;;19.90;57.20;;;;;;5019177;28;20022;-70
2023/11/13 05:50:23;;;;;;;1.40;0.93;;;19.90;57.10;;;;;;5018361;28;20049;-69
2023/11/13 05:52:50;;;;;;;1.05;0.70;;;19.90;57.20;;;;;;5020504;28;20129;-70
2023/11/13 05:55:15;;;;;;;1.77;0.77;;;19.90;57.20;;;;;;5016005;28;20030;-70
2023/11/13 05:57:42;;;;;;;1.77;0.77;;;19.90;57.20;;;;;;5022420;28;20116;-70
2023/11/13 06:00:11;;;;;;;1.85;1.05;;;19.90;57.20;;;;;;5019667;28;20029;-69
2023/11/13 06:02:37;;;;;;;0.95;0.73;;;19.90;57.30;;;;;;5017040;28;20084;-70
2023/11/13 06:05:04;;;;;;;1.13;0.80;;;19.90;57.30;;;;;;5005136;28;20478;-69
2023/11/13 06:07:30;;;;;;;1.15;0.80;;;19.90;57.30;;;;;;5003003;28;20429;-69
2023/11/13 06:09:57;;;;;;;0.88;0.77;;;19.90;57.30;;;;;;5016858;28;20075;-72
2023/11/13 06:12:23;;;;;;;1.13;0.85;;;19.90;57.30;;;;;;5036481;28;20060;-70
2023/11/13 06:14:49;;;;;;;1.20;0.80;;;20.00;58.90;;;;;;5017976;28;20022;-71
2023/11/13 06:17:15;;;;;;;1.25;0.90;;;20.10;59.20;;;;;;5016750;28;20442;-71
2023/11/13 06:19:41;;;;;;;1.90;0.90;;;20.20;58.90;;;;;;5017571;28;20029;-73
2023/11/13 06:22:09;;;;;;;1.73;1.00;;;20.30;58.40;;;;;;5035451;28;20033;-73
2023/11/13 06:24:38;;;;;;;2.25;1.20;;;20.30;57.70;;;;;;5019879;28;20441;-72
2023/11/13 06:27:07;;;;;;;1.88;1.00;;;20.50;57.50;;;;;;5019450;28;20022;-72
2023/11/13 06:29:32;;;;;;;1.42;1.00;;;20.60;57.30;;;;;;5019577;28;20158;-71
2023/11/13 06:31:58;;;;;;;1.00;0.85;;;20.70;57.10;;;;;;5017517;28;20460;-68
2023/11/13 06:34:24;;;;;;;0.93;0.70;;;20.80;57.10;;;;;;5020525;28;20485;-69
2023/11/13 06:36:51;;;;;;;1.13;0.73;;;20.80;56.60;;;;;;5019689;28;20049;-69
2023/11/13 06:39:17;;;;;;;1.25;0.80;;;20.80;56.60;;;;;;5018203;28;20622;-69
2023/11/13 06:41:44;;;;;;;1.33;0.70;;;20.80;56.60;;;;;;5018927;28;20017;-68
2023/11/13 06:44:10;;;;;;;0.73;0.70;;;20.80;56.70;;;;;;5018967;28;20029;-69
2023/11/13 06:46:36;;;;;;;0.95;0.80;;;20.70;57.20;;;;;;5017687;28;20202;-69
2023/11/13 06:49:03;;;;;;;1.40;0.82;;;20.70;56.70;;;;;;5018322;28;20428;-70
2023/11/13 06:51:28;;;;;;;1.08;0.80;;;20.70;56.70;;;;;;5017450;28;20462;-70
2023/11/13 06:53:54;;;;;;;0.93;0.70;;;20.80;56.80;;;;;;5003042;28;20022;-71
2023/11/13 06:56:20;;;;;;;2.38;0.90;;;20.70;56.70;;;;;;5019057;28;20486;-69
2023/11/13 06:58:46;;;;;;;1.20;0.88;;;20.80;56.70;;;;;;5021648;28;20374;-68
2023/11/13 07:01:13;;;;;;;1.38;0.77;;;20.80;56.80;;;;;;5016255;28;20028;-69
2023/11/13 07:03:39;;;;;;;1.05;0.70;;;20.80;56.80;;;;;;5018169;28;20049;-69
2023/11/13 07:06:10;;;;;;;1.70;1.00;;;20.80;56.80;;;;;;5000738;28;20064;-70
2023/11/13 07:08:36;;;;;;;2.13;0.90;;;20.90;56.90;;;;;;5020375;28;20027;-69
2023/11/13 07:11:02;;;;;;;2.10;1.00;;;20.80;56.90;;;;;;5019836;28;20044;-69
2023/11/13 07:13:29;;;;;;;1.23;0.70;;;20.90;56.90;;;;;;5003825;28;20021;-69
2023/11/13 07:15:55;;;;;;;1.88;0.90;;;20.90;56.90;;;;;;5021094;28;20026;-68
2023/11/13 07:18:21;;;;;;;1.23;0.70;;;20.90;57.00;;;;;;5019894;28;20188;-70
2023/11/13 07:20:47;;;;;;;1.38;0.75;;;20.90;57.10;;;;;;5019414;28;20029;-70
2023/11/13 07:23:16;;;;;;;2.03;0.90;;;20.90;57.30;;;;;;5017909;28;20025;-71
2023/11/13 07:25:44;;;;;;;0.95;0.70;;;20.90;57.60;;;;;;5017482;28;20029;-70
2023/11/13 07:28:10;;;;;;;0.90;0.70;;;20.90;57.40;;;;;;5018386;28;20452;-68
2023/11/13 07:30:37;;;;;;;1.13;0.73;;;20.90;57.40;;;;;;5013345;28;20068;-70
2023/11/13 07:33:03;;;;;;;1.83;0.90;;;20.90;57.40;;;;;;5014633;28;20485;-70
2023/11/13 07:35:29;;;;;;;1.58;0.70;;;21.00;57.40;;;;;;5019220;28;20028;-67
2023/11/13 07:37:55;;;;;;;1.23;0.77;;;21.00;57.30;;;;;;5017962;28;20502;-73
2023/11/13 07:40:20;;;;;;;0.95;0.70;;;21.00;57.30;;;;;;5020312;28;20033;-70
2023/11/13 07:42:48;;;;;;;1.33;0.80;;;21.00;57.30;;;;;;5019048;28;20116;-70
2023/11/13 07:45:14;;;;;;;1.13;0.70;;;21.00;57.30;;;;;;5018583;28;20338;-71
2023/11/13 07:47:40;;;;;;;1.52;0.77;;;21.00;57.30;;;;;;5031489;28;20045;-72
2023/11/13 07:50:12;;;;;;;1.52;1.00;;;21.00;57.30;;;;;;5017827;28;20664;-71
2023/11/13 07:52:42;;;;;;;1.08;0.77;;;21.00;57.30;;;;;;5017343;28;20537;-70
2023/11/13 07:55:12;;;;;;;1.10;0.80;;;21.00;57.30;;;;;;5018576;28;20018;-70
2023/11/13 07:57:38;;;;;;;0.90;0.70;;;21.00;57.20;;;;;;5033033;28;20077;-70
2023/11/13 08:00:09;;;;;;;1.27;0.73;;;21.00;57.30;;;;;;5021504;28;20030;-71
2023/11/13 08:02:37;;;;;;;1.30;0.80;;;21.10;57.30;;;;;;5017349;28;20036;-71
2023/11/13 08:05:03;;;;;;;1.60;0.70;;;21.10;57.30;;;;;;5018252;28;20060;-71
2023/11/13 08:07:29;;;;;;;1.15;0.80;;;21.10;57.30;;;;;;5000823;28;20021;-68
2023/11/13 08:09:54;;;;;;;1.20;0.88;;;21.10;57.30;;;;;;5019116;28;20040;-72
2023/11/13 08:12:20;;;;;;;1.92;0.80;;;21.10;57.30;;;;;;5018966;28;20030;-71
2023/11/13 08:14:46;;;;;;;2.00;0.90;;;21.20;57.60;;;;;;5017939;28;20052;-71
2023/11/13 08:17:13;;;;;;;1.48;0.88;;;21.30;57.50;;;;;;5016188;28;20482;-71
2023/11/13 08:19:39;;;;;;;2.38;1.00;;;21.40;57.40;;;;;;5016895;28;20362;-72
2023/11/13 08:22:04;;;;;;;2.00;1.02;;;21.40;57.20;;;;;;5019094;28;20033;-72
2023/11/13 08:24:30;;;;;;;1.50;1.00;;;21.60;56.90;;;;;;5019628;28;20116;-71
2023/11/13 08:26:56;;;;;;;1.90;1.00;;;21.60;56.70;;;;;;5000808;28;20393;-69
2023/11/13 08:29:22;;;;;;;1.85;1.00;;;21.70;56.30;;;;;;5018005;28;20033;-70
2023/11/13 08:31:48;;;;;;;2.03;1.10;;;21.80;56.20;;;;;;5014534;28;20026;-71
2023/11/13 08:34:15;;;;;;;1.92;1.08;;;21.90;56.00;;;;;;5033193;28;20540;-72
2023/11/13 08:36:41;;;;;;;1.80;0.90;;;22.00;55.90;;;;;;5018146;28;20080;-70
2023/11/13 08:39:07;;;;;;;1.48;1.00;;;22.00;55.70;;;;;;5018877;28;20034;-70
2023/11/13 08:41:33;;;;;;;1.67;0.90;;;22.00;55.60;;;;;;5018410;28;20026;-71
2023/11/13 08:44:03;;;;;;;1.50;0.90;;;22.00;55.50;;;;;;5000961;28;20029;-71
2023/11/13 08:46:30;;;;;;;1.63;0.90;;;22.00;55.50;;;;;;5017439;28;20038;-71
2023/11/13 08:48:56;;;;;;;2.03;1.00;;;22.00;55.50;;;;;;5019582;28;20022;-70
2023/11/13 08:51:28;;;;;;;1.48;1.00;;;22.00;55.50;;;;;;5021792;28;20056;-70
2023/11/13 08:53:59;;;;;;;1.60;1.00;;;22.00;55.50;;;;;;5019060;28;20125;-71
2023/11/13 08:56:26;;;;;;;2.45;0.98;;;22.00;55.40;;;;;;5022742;28;20498;-69
2023/11/13 08:58:54;;;;;;;1.42;0.80;;;22.00;55.40;;;;;;5021348;28;20048;-70
2023/11/13 09:01:25;;;;;;;1.52;0.90;;;22.00;55.40;;;;;;5004875;28;20478;-70
2023/11/13 09:03:52;;;;;;;1.75;0.90;;;22.00;55.30;;;;;;5019804;28;20595;-71
2023/11/13 09:06:18;;;;;;;1.52;0.88;;;22.00;55.30;;;;;;5021491;28;20385;-71
2023/11/13 09:08:44;;;;;;;1.88;0.98;;;22.00;55.20;;;;;;5021611;28;20029;-71
2023/11/13 09:11:14;;;;;;;1.73;0.90;;;22.00;55.20;;;;;;5019909;28;20541;-70
2023/11/13 09:13:39;;;;;;;2.83;0.90;;;22.00;55.10;;;;;;5037443;28;20127;-71
2023/11/13 09:16:05;;;;;;;1.33;0.80;;;22.00;55.20;;;;;;5036641;28;20102;-69
2023/11/13 09:18:32;;;;;;;1.27;0.75;;;22.00;55.10;;;;;;5020608;28;20520;-70
2023/11/13 09:20:58;;;;;;;1.10;0.80;;;22.00;55.70;;;;;;5003039;28;20057;-68
2023/11/13 09:23:24;;;;;;;0.88;0.70;;;22.00;55.20;;;;;;5004528;28;20026;-67
2023/11/13 09:25:49;;;;;;;1.42;0.80;;;21.90;55.20;;;;;;5021119;28;20042;-68
2023/11/13 09:28:16;;;;;;;1.75;1.00;;;21.90;55.40;;;;;;5019789;28;20029;-68
2023/11/13 09:30:41;;;;;;;1.33;0.90;;;22.00;55.20;;;;;;5020946;28;20053;-68
2023/11/13 09:33:10;;;;;;;1.50;0.90;;;22.00;55.00;;;;;;5019119;28;20100;-71
2023/11/13 09:35:35;;;;;;;1.40;0.90;;;22.00;55.00;;;;;;5020619;28;20021;-71
2023/11/13 09:38:01;;;;;;;1.25;0.80;;;22.00;55.20;;;;;;5020480;28;20175;-70
2023/11/13 09:40:34;;;;;;;3.03;0.70;;;21.90;55.30;;;;;;5021586;28;20032;-70
2023/11/13 09:43:07;;;;;;;1.02;0.70;;;21.90;55.40;;;;;;5021633;28;20114;-72
2023/11/13 09:45:34;;;;;;;0.90;0.52;;;21.90;55.50;;;;;;5020546;28;20155;-70
2023/11/13 09:48:04;;;;;;;1.25;0.70;;;21.90;55.50;;;;;;5004073;28;20026;-69
2023/11/13 09:50:30;;;;;;;0.98;0.70;;;21.90;56.10;;;;;;5020484;28;20390;-71
2023/11/13 09:52:57;;;;;;;1.05;0.70;;;21.90;55.60;;;;;;5020339;28;20052;-68
2023/11/13 09:55:24;;;;;;;1.35;0.80;;;22.00;55.70;;;;;;5022234;28;20037;-68
2023/11/13 09:57:53;;;;;;;1.38;0.73;;;22.00;56.20;;;;;;5021702;28;20022;-69
2023/11/13 10:00:21;;;;;;;;;;;22.00;55.70;;;;;;5019075;28;20014;-69
2023/11/13 10:02:48;;;;;;;1.60;0.80;;;22.00;55.60;;;;;;5014766;28;19906;-70
2023/11/13 10:05:15;;;;;;;1.08;0.60;;;22.00;55.80;;;;;;5018829;28;20103;-71
2023/11/13 10:07:47;;;;;;;0.85;0.70;;;22.00;55.70;;;;;;5022621;28;20121;-67
2023/11/13 10:10:22;;;;;;;0.93;0.70;;;22.00;55.60;;;;;;5019415;28;20028;-71
2023/11/13 10:12:55;;;;;;;1.40;0.68;;;22.00;55.60;;;;;;5015600;28;20029;-69
2023/11/13 10:15:29;;;;;;;0.80;0.55;;;22.00;55.60;;;;;;5020642;28;20022;-68
2023/11/13 10:17:59;;;;;;;1.00;0.70;;;22.10;55.60;;;;;;5019084;28;20041;-69
2023/11/13 10:20:26;;;;;;;0.65;0.60;;;22.10;56.20;;;;;;5021164;28;20034;-70
2023/11/13 10:23:05;;;;;;;0.95;0.70;;;22.10;55.70;;;;;;5019892;28;20420;-72
2023/11/13 10:25:52;;;;;;;0.93;0.60;;;22.10;55.70;;;;;;5020037;28;20058;-70
2023/11/13 10:28:21;;;;;;;1.08;0.63;;;22.10;55.60;;;;;;5018804;28;20034;-71
2023/11/13 10:31:00;;;;;;;1.08;0.80;;;22.10;55.70;;;;;;5019023;28;20527;-71
2023/11/13 10:33:29;;;;;;;0.98;0.60;;;22.10;55.90;;;;;;5032365;28;20034;-72
2023/11/13 10:36:04;;;;;;;0.98;0.60;;;22.10;55.70;;;;;;5019019;28;20034;-70
2023/11/13 10:38:43;;;;;;;1.08;0.60;;;22.10;55.60;;;;;;5020786;28;20025;-70
2023/11/13 10:41:12;;;;;;;0.70;0.60;;;22.10;55.60;;;;;;5019698;28;20026;-72
2023/11/13 10:43:39;;;;;;;0.88;0.63;;;22.10;55.60;;;;;;5019577;28;20026;-70
2023/11/13 10:46:09;;;;;;;0.90;0.70;;;22.10;55.60;;;;;;5020941;28;20187;-69
2023/11/13 10:48:42;;;;;;;1.05;0.82;;;22.20;55.80;;;;;;5019070;28;20386;-72
2023/11/13 10:51:10;;;;;;;0.63;0.60;;;22.20;55.70;;;;;;5018702;28;20030;-72
2023/11/13 10:53:42;;;;;;;0.80;0.70;;;22.20;55.80;;;;;;5020225;28;20033;-72
2023/11/13 10:56:09;;;;;;;1.23;0.70;;;22.20;55.70;;;;;;5020990;28;20066;-69
2023/11/13 10:58:38;;;;;;;1.02;0.70;;;22.20;55.60;;;;;;5018349;28;20030;-70
2023/11/13 11:01:07;;;;;;;1.00;0.60;;;22.20;55.60;;;;;;5000711;28;20019;-70
2023/11/13 11:03:37;;;;;;;;;;;22.20;55.70;;;;;;5015933;28;20394;-71
2023/11/13 11:06:11;;;;;;;0.82;0.70;;;22.20;55.80;;;;;;5034700;28;19910;-72
2023/11/13 11:08:38;;;;;;;1.33;0.98;;;22.20;56.30;;;;;;4999437;28;20048;-72
2023/11/13 11:11:06;;;;;;;1.70;0.90;;;22.20;55.60;;;;;;5021061;28;20060;-72
2023/11/13 11:13:34;;;;;;;0.88;0.70;;;22.30;55.30;;;;;;5035838;28;20026;-72
2023/11/13 11:16:13;;;;;;;1.15;0.70;;;22.30;55.00;;;;;;5021230;28;20157;-74
2023/11/13 11:18:48;;;;;;;1.45;0.90;;;22.30;54.70;;;;;;5030779;28;20520;-72
2023/11/13 11:21:35;;;;;;;1.15;0.80;;;22.30;54.80;;;;;;5018356;28;20347;-72
2023/11/13 11:24:04;;;;;;;1.20;0.80;;;22.30;54.80;;;;;;5017377;28;20040;-73
2023/11/13 11:26:53;;;;;;;0.85;0.65;;;22.30;54.70;;;;;;5019023;28;20106;-73
2023/11/13 11:29:44;;;;;;;1.48;0.90;;;22.30;54.70;;;;;;5017655;28;20521;-73
2023/11/13 11:32:15;;;;;;;1.77;1.00;;;22.20;54.70;;;;;;5014512;28;20380;-74
2023/11/13 11:34:43;;;;;;;1.30;0.80;;;22.20;54.70;;;;;;5017508;28;20097;-74
2023/11/13 11:37:12;;;;;;;1.27;0.90;;;22.20;54.70;;;;;;5019877;28;20033;-70
2023/11/13 11:39:51;;;;;;;0.75;0.68;;;22.20;54.70;;;;;;5018029;28;20018;-73
2023/11/13 11:42:24;;;;;;;1.63;0.95;;;22.20;54.80;;;;;;5021077;28;20390;-76
2023/11/13 11:44:59;;;;;;;1.23;0.82;;;22.20;54.80;;;;;;5018242;28;20541;-74
2023/11/13 11:47:28;;;;;;;1.48;0.90;;;22.20;54.80;;;;;;5017298;28;20101;-71
2023/11/13 11:49:57;;;;;;;;;;;22.20;54.90;;;;;;5019258;28;20120;-70
2023/11/13 11:52:54;;;;;;;1.48;0.90;;;22.20;54.90;;;;;;5018873;28;19917;-72
2023/11/13 11:55:22;;;;;;;1.23;0.85;;;22.20;54.90;;;;;;5015487;28;20040;-73
2023/11/13 11:57:49;;;;;;;0.85;0.68;;;22.20;55.40;;;;;;5018343;28;20026;-70
2023/11/13 12:00:20;;;;;;;1.65;0.90;;;22.20;55.40;;;;;;5017346;28;20060;-73
2023/11/13 12:02:56;;;;;;;1.23;0.90;;;22.10;54.90;;;;;;5018549;28;20053;-77
2023/11/13 12:05:22;;;;;;;2.15;0.85;;;22.10;54.90;;;;;;5015471;28;20116;-71
2023/11/13 12:07:52;;;;;;;1.10;0.70;;;22.20;55.00;;;;;;5019010;28;20021;-71
2023/11/13 12:10:21;;;;;;;1.67;0.88;;;22.20;55.00;;;;;;5032317;28;20512;-73
2023/11/13 12:12:48;;;;;;;1.42;0.85;;;22.20;55.10;;;;;;5019606;28;20485;-70
2023/11/13 12:15:14;;;;;;;0.77;0.60;;;22.20;55.00;;;;;;5018892;28;20014;-71
2023/11/13 12:17:41;;;;;;;1.33;0.70;;;22.10;55.50;;;;;;5019488;28;20030;-74
2023/11/13 12:20:09;;;;;;;1.15;0.70;;;22.10;55.10;;;;;;5003218;28;20029;-74
2023/11/13 12:22:41;;;;;;;0.97;0.70;;;22.10;55.00;;;;;;5017468;28;20022;-75
2023/11/13 12:25:07;;;;;;;3.05;0.88;;;22.10;55.10;;;;;;5020850;28;20045;-71
2023/11/13 12:27:40;;;;;;;1.27;0.70;;;22.10;55.10;;;;;;5022522;28;20055;-72
2023/11/13 12:30:15;;;;;;;1.02;0.65;;;22.10;55.00;;;;;;5005933;28;20371;-74
2023/11/13 12:32:42;;;;;;;0.93;0.68;;;22.10;55.10;;;;;;5004772;28;20060;-71
2023/11/13 12:35:08;;;;;;;0.75;0.60;;;22.10;55.10;;;;;;5018737;28;20484;-72
2023/11/13 12:37:33;;;;;;;0.95;0.63;;;22.10;55.10;;;;;;5021420;28;20068;-74
2023/11/13 12:40:01;;;;;;;1.27;0.75;;;22.10;55.20;;;;;;5019859;28;20115;-70
2023/11/13 12:42:27;;;;;;;0.93;0.68;;;22.10;55.20;;;;;;5023366;28;20030;-73
2023/11/13 12:44:54;;;;;;;1.00;0.60;;;22.10;55.20;;;;;;5024649;28;20072;-71
2023/11/13 12:47:20;;;;;;;0.90;0.60;;;22.10;55.30;;;;;;5024134;28;20022;-71
2023/11/13 12:49:48;;;;;;;1.27;0.65;;;22.10;55.30;;;;;;5018815;28;20482;-74